Time;durP1;ratioP1;P1;durP2;ratioP2;P2;SDS_P1;SDS_P2;PMS_P1;PMS_P2;Temp;Humidity;BMP_temperature;BMP_pressure;BME280_temperature;BME280_humidity;BME280_pressure;Samples;Min_cycle;Max_cycle;Signal;HPM_P1;HPM_P2
2021/10/08 00:02:12;;;;;;;4.90;1.88;;;;;;;;;;5089792;28;20036;-64
2021/10/08 00:04:37;;;;;;;2.90;2.08;;;;;;;;;;5090704;28;20476;-65
2021/10/08 00:07:03;;;;;;;3.08;2.08;;;;;;;;;;5093571;28;20044;-64
2021/10/08 00:09:29;;;;;;;3.78;2.45;;;;;;;;;;5094490;28;20024;-64
2021/10/08 00:11:56;;;;;;;2.97;2.17;;;;;;;;;;5090153;28;20051;-64
2021/10/08 00:14:23;;;;;;;2.60;2.10;;;;;;;;;;5090088;28;20432;-64
2021/10/08 00:16:49;;;;;;;2.00;1.52;;;;;;;;;;5090871;28;20140;-64
2021/10/08 00:19:15;;;;;;;3.08;2.17;;;;;;;;;;5093878;28;20115;-64
2021/10/08 00:21:40;;;;;;;2.78;2.20;;;;;;;;;;5086953;28;20036;-64
2021/10/08 00:24:05;;;;;;;9.13;2.83;;;;;;;;;;5090742;28;20032;-64
2021/10/08 00:26:31;;;;;;;2.72;2.08;;;;;;;;;;5091770;28;20060;-63
2021/10/08 00:28:57;;;;;;;3.47;2.22;;;;;;;;;;5087977;28;20051;-64
2021/10/08 00:31:22;;;;;;;2.50;1.90;;;;;;;;;;5089223;28;20100;-63
2021/10/08 00:33:48;;;;;;;3.38;2.58;;;;;;;;;;5090079;28;20035;-64
2021/10/08 00:36:13;;;;;;;2.38;1.80;;;;;;;;;;5090924;28;20569;-65
2021/10/08 00:38:40;;;;;;;2.70;1.75;;;;;;;;;;5089755;28;20036;-64
2021/10/08 00:41:06;;;;;;;3.22;2.42;;;;;;;;;;5092375;28;20032;-64
2021/10/08 00:43:32;;;;;;;3.15;2.33;;;;;;;;;;5088900;28;20453;-64
2021/10/08 00:45:57;;;;;;;3.33;2.45;;;;;;;;;;5092706;28;20111;-65
2021/10/08 00:48:23;;;;;;;2.70;1.90;;;;;;;;;;5090685;28;20039;-64
2021/10/08 00:50:50;;;;;;;2.60;1.80;;;;;;;;;;5086709;28;20772;-63
2021/10/08 00:53:17;;;;;;;4.43;2.25;;;;;;;;;;5092653;28;20044;-63
2021/10/08 00:55:49;;;;;;;5.53;2.53;;;;;;;;;;5088788;28;20115;-63
2021/10/08 00:58:17;;;;;;;2.75;1.98;;;;;;;;;;5089012;28;20036;-64
2021/10/08 01:00:44;;;;;;;3.60;2.72;;;;;;;;;;5089955;28;20071;-63
2021/10/08 01:03:10;;;;;;;2.65;1.95;;;;;;;;;;5087571;28;20492;-63
2021/10/08 01:05:37;;;;;;;2.72;2.00;;;;;;;;;;5087909;28;20060;-65
2021/10/08 01:08:03;;;;;;;3.53;2.55;;;;;;;;;;5083834;28;20035;-64
2021/10/08 01:10:29;;;;;;;2.28;1.65;;;;;;;;;;5089392;28;20075;-63
2021/10/08 01:12:54;;;;;;;4.63;2.90;;;;;;;;;;5088173;28;20063;-63
2021/10/08 01:15:20;;;;;;;2.78;2.03;;;;;;;;;;5086892;28;20028;-63
2021/10/08 01:17:50;;;;;;;2.92;2.17;;;;;;;;;;5092015;28;20028;-64
2021/10/08 01:20:15;;;;;;;2.53;1.85;;;;;;;;;;5091452;28;20085;-63
2021/10/08 01:22:41;;;;;;;2.78;2.08;;;;;;;;;;5091346;28;20419;-63
2021/10/08 01:25:07;;;;;;;3.55;2.67;;;;;;;;;;5084292;28;20118;-63
2021/10/08 01:27:32;;;;;;;3.28;2.33;;;;;;;;;;5088408;28;20037;-64
2021/10/08 01:30:00;;;;;;;3.50;2.40;;;;;;;;;;5086514;28;20043;-64
2021/10/08 01:32:28;;;;;;;2.60;1.95;;;;;;;;;;5084646;28;20069;-63
2021/10/08 01:34:54;;;;;;;3.42;2.58;;;;;;;;;;5089809;28;20100;-64
2021/10/08 01:37:19;;;;;;;3.47;2.33;;;;;;;;;;5088887;28;20032;-64
2021/10/08 01:39:45;;;;;;;3.78;2.25;;;;;;;;;;5090169;28;20111;-64
2021/10/08 01:42:12;;;;;;;3.10;2.35;;;;;;;;;;5091021;28;20062;-65
2021/10/08 01:44:38;;;;;;;2.75;2.05;;;;;;;;;;5090907;28;20039;-65
2021/10/08 01:47:04;;;;;;;3.00;2.40;;;;;;;;;;5084482;28;20036;-64
2021/10/08 01:49:29;;;;;;;3.35;2.33;;;;;;;;;;5090198;28;20434;-65
2021/10/08 01:51:55;;;;;;;4.22;2.30;;;;;;;;;;5090696;28;20122;-64
2021/10/08 01:54:20;;;;;;;3.78;2.42;;;;;;;;;;5086382;28;20445;-64
2021/10/08 01:56:45;;;;;;;3.58;2.65;;;;;;;;;;5088395;28;20093;-65
2021/10/08 01:59:12;;;;;;;3.55;2.33;;;;;;;;;;5092429;28;20086;-65
2021/10/08 02:01:37;;;;;;;3.25;2.45;;;;;;;;;;5088332;28;20032;-64
2021/10/08 02:04:03;;;;;;;2.58;2.10;;;;;;;;;;5086934;28;20635;-64
2021/10/08 02:06:29;;;;;;;3.10;2.25;;;;;;;;;;5084914;28;20469;-65
2021/10/08 02:08:55;;;;;;;2.92;2.17;;;;;;;;;;5086154;28;20036;-65
2021/10/08 02:11:20;;;;;;;2.88;2.35;;;;;;;;;;5082597;28;20360;-65
2021/10/08 02:13:46;;;;;;;2.25;1.65;;;;;;;;;;5089001;28;20112;-65
2021/10/08 02:16:12;;;;;;;2.63;1.83;;;;;;;;;;5087256;28;20037;-65
2021/10/08 02:18:37;;;;;;;3.53;2.63;;;;;;;;;;5089691;28;20032;-64
2021/10/08 02:21:03;;;;;;;2.53;1.95;;;;;;;;;;5087131;28;20038;-66
2021/10/08 02:23:28;;;;;;;3.30;2.55;;;;;;;;;;5088758;28;20025;-65
2021/10/08 02:25:54;;;;;;;3.40;2.50;;;;;;;;;;5088067;28;20036;-64
2021/10/08 02:28:20;;;;;;;2.50;2.03;;;;;;;;;;5087496;28;20044;-65
2021/10/08 02:30:45;;;;;;;3.75;2.50;;;;;;;;;;5088002;28;20111;-65
2021/10/08 02:33:11;;;;;;;2.88;2.22;;;;;;;;;;5089362;28;20040;-64
2021/10/08 02:35:36;;;;;;;4.40;2.33;;;;;;;;;;5085065;28;20031;-65
2021/10/08 02:38:02;;;;;;;3.42;2.67;;;;;;;;;;5085781;28;20077;-63
2021/10/08 02:40:27;;;;;;;5.93;2.17;;;;;;;;;;5090519;28;20035;-64
2021/10/08 02:42:53;;;;;;;3.92;2.35;;;;;;;;;;5085312;28;20054;-63
2021/10/08 02:45:20;;;;;;;2.60;2.05;;;;;;;;;;5085953;28;20036;-63
2021/10/08 02:51:07;;;;;;;3.65;2.30;;;;;;;;;;5082344;28;20358;-64
2021/10/08 02:53:32;;;;;;;3.00;2.38;;;;;;;;;;5090025;28;20111;-64
2021/10/08 02:55:58;;;;;;;2.60;1.92;;;;;;;;;;5092415;28;20036;-64
2021/10/08 02:58:24;;;;;;;2.92;2.30;;;;;;;;;;5078635;28;20028;-64
2021/10/08 03:00:50;;;;;;;2.50;1.80;;;;;;;;;;5088013;28;20028;-64
2021/10/08 03:03:15;;;;;;;3.72;2.50;;;;;;;;;;5089836;28;20031;-65
2021/10/08 03:05:41;;;;;;;3.38;2.53;;;;;;;;;;5085539;28;20028;-64
2021/10/08 03:08:07;;;;;;;4.20;3.00;;;;;;;;;;5080453;28;20024;-64
2021/10/08 03:10:33;;;;;;;3.03;2.20;;;;;;;;;;5093423;28;20123;-64
2021/10/08 03:12:59;;;;;;;2.80;2.42;;;;;;;;;;5086861;28;20060;-64
2021/10/08 03:15:24;;;;;;;2.33;1.80;;;;;;;;;;5088529;28;20600;-64
2021/10/08 03:17:50;;;;;;;2.88;2.47;;;;;;;;;;5087163;28;20036;-63
2021/10/08 03:20:15;;;;;;;2.35;1.73;;;;;;;;;;5088661;28;20047;-64
2021/10/08 03:22:41;;;;;;;3.05;2.22;;;;;;;;;;5089830;28;20020;-63
2021/10/08 03:25:08;;;;;;;2.97;2.17;;;;;;;;;;5091641;28;20047;-64
2021/10/08 03:27:38;;;;;;;2.92;2.35;;;;;;;;;;5088756;28;20126;-64
2021/10/08 03:30:06;;;;;;;3.03;2.15;;;;;;;;;;5086385;28;20040;-64
2021/10/08 03:32:32;;;;;;;3.10;2.28;;;;;;;;;;5085042;28;20382;-63
2021/10/08 03:34:58;;;;;;;2.72;2.00;;;;;;;;;;5080314;28;20036;-65
2021/10/08 03:37:29;;;;;;;2.90;2.05;;;;;;;;;;5088124;28;20062;-64
2021/10/08 03:39:55;;;;;;;2.40;1.85;;;;;;;;;;5083565;28;20028;-64
2021/10/08 03:42:22;;;;;;;2.30;1.70;;;;;;;;;;5088619;28;20090;-64
2021/10/08 03:44:54;;;;;;;2.90;2.03;;;;;;;;;;5092135;28;20107;-65
2021/10/08 03:47:27;;;;;;;2.63;1.95;;;;;;;;;;5088558;28;20151;-64
2021/10/08 03:49:53;;;;;;;3.88;2.65;;;;;;;;;;5089577;28;20078;-64
2021/10/08 03:52:18;;;;;;;4.10;2.30;;;;;;;;;;5088423;28;20063;-64
2021/10/08 03:54:44;;;;;;;3.00;2.15;;;;;;;;;;5084756;28;20115;-64
2021/10/08 03:57:09;;;;;;;2.55;1.98;;;;;;;;;;5087043;28;20028;-63
2021/10/08 03:59:35;;;;;;;3.55;2.78;;;;;;;;;;5090756;28;20046;-63
2021/10/08 04:02:00;;;;;;;2.45;2.08;;;;;;;;;;5087966;28;20028;-60
2021/10/08 04:04:25;;;;;;;2.88;2.10;;;;;;;;;;5095366;28;20028;-60
2021/10/08 04:06:51;;;;;;;2.95;2.33;;;;;;;;;;5092870;28;20032;-62
2021/10/08 04:09:16;;;;;;;3.33;2.33;;;;;;;;;;5088777;28;20024;-62
2021/10/08 04:11:42;;;;;;;3.58;2.45;;;;;;;;;;5093901;28;20035;-61
2021/10/08 04:14:08;;;;;;;3.22;2.28;;;;;;;;;;5087710;28;20412;-61
2021/10/08 04:16:36;;;;;;;2.63;2.05;;;;;;;;;;5090973;28;20040;-61
2021/10/08 04:19:03;;;;;;;2.63;2.10;;;;;;;;;;5089845;28;20032;-61
2021/10/08 04:21:29;;;;;;;5.10;3.15;;;;;;;;;;5092261;28;20389;-61
2021/10/08 04:23:54;;;;;;;3.42;2.58;;;;;;;;;;5088551;28;20035;-61
2021/10/08 04:26:20;;;;;;;2.63;1.88;;;;;;;;;;5093666;27;20032;-61
2021/10/08 04:28:45;;;;;;;2.47;1.88;;;;;;;;;;5075768;28;20152;-62
2021/10/08 04:31:12;;;;;;;3.15;2.20;;;;;;;;;;5091212;28;20036;-61
2021/10/08 04:33:37;;;;;;;2.95;2.05;;;;;;;;;;5090180;28;20066;-61
2021/10/08 04:36:03;;;;;;;2.70;2.08;;;;;;;;;;5092547;28;20078;-61
2021/10/08 04:38:30;;;;;;;2.72;1.85;;;;;;;;;;5085972;28;20775;-61
2021/10/08 04:40:56;;;;;;;2.67;2.08;;;;;;;;;;5087510;28;20024;-61
2021/10/08 04:43:21;;;;;;;3.13;2.38;;;;;;;;;;5089331;28;20058;-61
2021/10/08 04:45:47;;;;;;;2.45;1.80;;;;;;;;;;5091844;28;20046;-60
2021/10/08 04:48:13;;;;;;;3.90;2.38;;;;;;;;;;5092185;28;20112;-60
2021/10/08 04:50:39;;;;;;;3.08;2.25;;;;;;;;;;5093462;28;20046;-61
2021/10/08 04:53:22;;;;;;;2.78;2.25;;;;;;;;;;5091777;28;20369;-60
2021/10/08 04:55:48;;;;;;;2.60;1.92;;;;;;;;;;5092987;28;20020;-61
2021/10/08 04:58:16;;;;;;;2.80;2.25;;;;;;;;;;5087524;28;20229;-64
2021/10/08 05:00:42;;;;;;;5.03;2.90;;;;;;;;;;5095321;28;20114;-64
2021/10/08 05:03:13;;;;;;;3.28;2.30;;;;;;;;;;5095300;28;20028;-65
2021/10/08 05:05:38;;;;;;;2.80;1.98;;;;;;;;;;5090603;28;20039;-65
2021/10/08 05:08:04;;;;;;;3.72;3.00;;;;;;;;;;5091426;28;20035;-64
2021/10/08 05:10:31;;;;;;;3.63;2.58;;;;;;;;;;5097758;28;20051;-63
2021/10/08 05:12:56;;;;;;;3.00;1.92;;;;;;;;;;5087013;28;20374;-63
2021/10/08 05:15:22;;;;;;;2.78;1.98;;;;;;;;;;5086318;28;20024;-61
2021/10/08 05:17:47;;;;;;;4.22;2.65;;;;;;;;;;5088025;28;20027;-61
2021/10/08 05:20:12;;;;;;;3.42;2.55;;;;;;;;;;5089100;28;20602;-61
2021/10/08 05:22:38;;;;;;;3.55;2.72;;;;;;;;;;5091170;28;20357;-61
2021/10/08 05:25:04;;;;;;;3.20;2.50;;;;;;;;;;5085101;28;20109;-61
2021/10/08 05:27:29;;;;;;;2.92;2.20;;;;;;;;;;5091204;28;20043;-61
2021/10/08 05:29:54;;;;;;;4.07;2.60;;;;;;;;;;5092465;28;20032;-60
2021/10/08 05:32:20;;;;;;;4.15;2.65;;;;;;;;;;5093337;28;20032;-61
2021/10/08 05:34:45;;;;;;;3.50;2.50;;;;;;;;;;5089824;28;20484;-61
2021/10/08 05:37:11;;;;;;;3.83;2.70;;;;;;;;;;5089723;28;20046;-64
2021/10/08 05:39:36;;;;;;;2.80;2.15;;;;;;;;;;5085218;28;20031;-64
2021/10/08 05:42:02;;;;;;;3.03;2.03;;;;;;;;;;5085413;28;20032;-64
2021/10/08 05:44:27;;;;;;;3.72;2.33;;;;;;;;;;5086856;28;20020;-64
2021/10/08 05:46:54;;;;;;;10.35;2.83;;;;;;;;;;5088517;28;20474;-64
2021/10/08 05:49:20;;;;;;;3.25;2.33;;;;;;;;;;5085112;28;20132;-64
2021/10/08 05:51:45;;;;;;;3.83;2.50;;;;;;;;;;5087345;28;20107;-63
2021/10/08 05:54:10;;;;;;;3.95;2.42;;;;;;;;;;5089489;28;20040;-64
2021/10/08 05:56:36;;;;;;;3.05;2.45;;;;;;;;;;5088816;28;20081;-63
2021/10/08 05:59:01;;;;;;;4.70;2.85;;;;;;;;;;5085846;28;20121;-64
2021/10/08 06:01:27;;;;;;;3.55;2.40;;;;;;;;;;5087162;28;20390;-63
2021/10/08 06:03:52;;;;;;;3.92;2.78;;;;;;;;;;5087686;28;20028;-64
2021/10/08 06:06:18;;;;;;;2.70;2.22;;;;;;;;;;5083438;28;20040;-64
2021/10/08 06:08:43;;;;;;;3.25;2.50;;;;;;;;;;5087863;28;20042;-64
2021/10/08 06:11:09;;;;;;;6.30;3.10;;;;;;;;;;5091970;28;20122;-64
2021/10/08 06:13:35;;;;;;;3.60;2.58;;;;;;;;;;5091026;28;20040;-64
2021/10/08 06:16:00;;;;;;;3.10;2.38;;;;;;;;;;5091909;28;20059;-64
2021/10/08 06:18:26;;;;;;;4.15;3.00;;;;;;;;;;5086863;28;20043;-64
2021/10/08 06:20:52;;;;;;;4.20;3.05;;;;;;;;;;5090871;28;20019;-64
2021/10/08 06:23:17;;;;;;;4.40;2.85;;;;;;;;;;5088969;28;20587;-64
2021/10/08 06:25:43;;;;;;;3.80;2.75;;;;;;;;;;5089986;28;20366;-64
2021/10/08 06:28:08;;;;;;;4.07;2.92;;;;;;;;;;5089737;28;20669;-63
2021/10/08 06:30:34;;;;;;;3.42;2.80;;;;;;;;;;5088488;28;20075;-64
2021/10/08 06:32:59;;;;;;;5.03;3.22;;;;;;;;;;5091478;28;20483;-64
2021/10/08 06:35:24;;;;;;;4.15;2.80;;;;;;;;;;5089113;28;20051;-64
2021/10/08 06:37:50;;;;;;;3.45;2.67;;;;;;;;;;5089941;28;20038;-64
2021/10/08 06:40:15;;;;;;;3.03;2.30;;;;;;;;;;5085827;28;20418;-64
2021/10/08 06:42:41;;;;;;;2.97;2.50;;;;;;;;;;5086089;28;20034;-64
2021/10/08 06:45:06;;;;;;;2.88;2.33;;;;;;;;;;5085367;28;20111;-64
2021/10/08 06:47:32;;;;;;;5.60;3.05;;;;;;;;;;5085676;28;20035;-63
2021/10/08 06:49:58;;;;;;;3.80;2.53;;;;;;;;;;5094715;28;20028;-64
2021/10/08 06:52:24;;;;;;;3.58;2.60;;;;;;;;;;5088320;28;20163;-64
2021/10/08 06:54:49;;;;;;;3.13;2.42;;;;;;;;;;5085695;28;20050;-65
2021/10/08 06:57:14;;;;;;;5.70;3.28;;;;;;;;;;5087718;28;20096;-64
2021/10/08 06:59:40;;;;;;;4.03;2.97;;;;;;;;;;5084140;28;20372;-63
2021/10/08 07:02:05;;;;;;;3.22;2.70;;;;;;;;;;5086609;28;20059;-64
2021/10/08 07:04:31;;;;;;;3.50;2.28;;;;;;;;;;5084051;28;20029;-64
2021/10/08 07:06:56;;;;;;;3.58;2.67;;;;;;;;;;5085246;28;20386;-64
2021/10/08 07:09:21;;;;;;;3.35;2.53;;;;;;;;;;5090209;28;20362;-63
2021/10/08 07:11:47;;;;;;;6.63;3.53;;;;;;;;;;5093119;28;20115;-64
2021/10/08 07:14:12;;;;;;;3.55;2.20;;;;;;;;;;5082161;28;20044;-63
2021/10/08 07:16:38;;;;;;;3.60;2.97;;;;;;;;;;5090253;28;20068;-63
2021/10/08 07:19:08;;;;;;;4.07;3.15;;;;;;;;;;5091592;28;20028;-63
2021/10/08 07:21:34;;;;;;;4.30;2.55;;;;;;;;;;5083705;28;20441;-64
2021/10/08 07:24:01;;;;;;;3.75;2.80;;;;;;;;;;5092140;28;20055;-63
2021/10/08 07:26:29;;;;;;;3.63;2.92;;;;;;;;;;5084819;28;20033;-63
2021/10/08 07:28:55;;;;;;;4.60;3.92;;;;;;;;;;5086749;28;20131;-63
2021/10/08 07:31:20;;;;;;;3.50;2.28;;;;;;;;;;5091281;28;20111;-63
2021/10/08 07:33:46;;;;;;;3.28;2.58;;;;;;;;;;5089900;28;20415;-62
2021/10/08 07:36:11;;;;;;;3.47;2.45;;;;;;;;;;5091681;28;20086;-62
2021/10/08 07:38:38;;;;;;;3.13;2.70;;;;;;;;;;5092920;28;20047;-63
2021/10/08 07:41:04;;;;;;;4.05;2.72;;;;;;;;;;5093688;28;20483;-63
2021/10/08 07:43:31;;;;;;;3.60;2.63;;;;;;;;;;5090948;28;20032;-62
2021/10/08 07:45:57;;;;;;;4.53;3.00;;;;;;;;;;5090215;28;20036;-62
2021/10/08 07:48:22;;;;;;;3.22;2.10;;;;;;;;;;5091364;28;20036;-63
2021/10/08 07:50:48;;;;;;;3.42;2.65;;;;;;;;;;5087244;28;20039;-62
2021/10/08 07:53:13;;;;;;;3.35;2.55;;;;;;;;;;5093738;28;20494;-62
2021/10/08 07:55:39;;;;;;;8.18;3.17;;;;;;;;;;5092604;28;20084;-62
2021/10/08 07:58:04;;;;;;;6.05;3.88;;;;;;;;;;5091976;28;20166;-62
2021/10/08 08:00:29;;;;;;;3.63;2.33;;;;;;;;;;5092796;28;20066;-62
2021/10/08 08:02:55;;;;;;;5.13;3.22;;;;;;;;;;5090944;28;20062;-62
2021/10/08 08:05:20;;;;;;;2.47;1.92;;;;;;;;;;5093979;28;20032;-63
2021/10/08 08:07:48;;;;;;;4.78;3.75;;;;;;;;;;5093001;28;20086;-62
2021/10/08 08:10:13;;;;;;;3.85;2.90;;;;;;;;;;5088943;28;20107;-64
2021/10/08 08:12:39;;;;;;;4.55;3.10;;;;;;;;;;5091616;28;20169;-64
2021/10/08 08:15:05;;;;;;;3.72;2.70;;;;;;;;;;5088318;28;20024;-64
2021/10/08 08:17:30;;;;;;;3.03;2.53;;;;;;;;;;5092167;28;20085;-64
2021/10/08 08:19:56;;;;;;;3.40;2.70;;;;;;;;;;5093180;28;20060;-65
2021/10/08 08:22:21;;;;;;;4.78;3.17;;;;;;;;;;5093014;28;20519;-66
2021/10/08 08:24:47;;;;;;;5.32;3.22;;;;;;;;;;5091635;28;20023;-64
2021/10/08 08:27:12;;;;;;;4.50;3.38;;;;;;;;;;5089339;28;20075;-63
2021/10/08 08:29:39;;;;;;;4.50;2.55;;;;;;;;;;5086153;28;20089;-64
2021/10/08 08:32:05;;;;;;;3.70;2.80;;;;;;;;;;5090125;28;20059;-64
2021/10/08 08:34:30;;;;;;;5.43;3.17;;;;;;;;;;5088330;28;20489;-64
2021/10/08 08:36:56;;;;;;;4.93;2.20;;;;;;;;;;5094584;28;20032;-64
2021/10/08 08:39:21;;;;;;;4.40;2.60;;;;;;;;;;5093786;28;20036;-64
2021/10/08 08:41:48;;;;;;;3.67;2.83;;;;;;;;;;5092170;28;20036;-64
2021/10/08 08:44:14;;;;;;;4.05;2.88;;;;;;;;;;5091032;28;20028;-64
2021/10/08 08:46:40;;;;;;;2.83;2.45;;;;;;;;;;5090079;28;20670;-64
2021/10/08 08:49:05;;;;;;;5.07;2.53;;;;;;;;;;5087099;28;20054;-65
2021/10/08 08:51:32;;;;;;;3.15;2.45;;;;;;;;;;5085504;28;20038;-64
2021/10/08 08:54:00;;;;;;;5.55;2.75;;;;;;;;;;5091427;28;20044;-64
2021/10/08 08:56:27;;;;;;;3.95;3.00;;;;;;;;;;5089866;28;20116;-64
2021/10/08 08:59:05;;;;;;;5.13;3.03;;;;;;;;;;5081568;28;20043;-64
2021/10/08 09:01:31;;;;;;;3.50;2.60;;;;;;;;;;5088882;28;20520;-64
2021/10/08 09:04:07;;;;;;;3.30;2.25;;;;;;;;;;5089590;28;20032;-64
2021/10/08 09:06:38;;;;;;;3.00;2.17;;;;;;;;;;5090910;28;20465;-64
2021/10/08 09:09:17;;;;;;;3.17;2.60;;;;;;;;;;5090680;28;20067;-64
2021/10/08 09:11:43;;;;;;;5.00;2.30;;;;;;;;;;5092007;28;20563;-64
2021/10/08 09:14:16;;;;;;;3.08;2.25;;;;;;;;;;5088689;28;20515;-65
2021/10/08 09:17:09;;;;;;;3.70;2.63;;;;;;;;;;5087232;28;20027;-65
2021/10/08 09:19:43;;;;;;;3.58;2.13;;;;;;;;;;5082304;28;20363;-65
2021/10/08 09:22:08;;;;;;;3.00;2.35;;;;;;;;;;5091634;28;20044;-64
2021/10/08 09:24:34;;;;;;;3.28;2.63;;;;;;;;;;5089749;28;20483;-63
2021/10/08 09:27:10;;;;;;;3.00;2.33;;;;;;;;;;5090800;28;20036;-64
2021/10/08 09:29:35;;;;;;;3.25;2.90;;;;;;;;;;5088341;28;20076;-64
2021/10/08 09:32:01;;;;;;;2.97;2.35;;;;;;;;;;5085939;28;20123;-63
2021/10/08 09:34:26;;;;;;;2.50;1.83;;;;;;;;;;5091231;28;20024;-64
2021/10/08 09:37:02;;;;;;;3.17;2.40;;;;;;;;;;5090168;28;20032;-64
2021/10/08 09:39:33;;;;;;;3.00;2.30;;;;;;;;;;5088321;28;20426;-64
2021/10/08 09:42:01;;;;;;;5.28;2.05;;;;;;;;;;5088370;28;20039;-64
2021/10/08 09:44:28;;;;;;;3.45;2.63;;;;;;;;;;5087252;28;20497;-64
2021/10/08 09:47:08;;;;;;;2.67;2.17;;;;;;;;;;5087246;28;20036;-63
2021/10/08 09:49:33;;;;;;;3.75;2.17;;;;;;;;;;5088323;28;20040;-64
2021/10/08 09:51:59;;;;;;;4.18;2.92;;;;;;;;;;5087942;28;20089;-64
2021/10/08 09:54:27;;;;;;;2.53;1.83;;;;;;;;;;5091266;28;20040;-64
2021/10/08 09:56:59;;;;;;;3.00;2.20;;;;;;;;;;5083847;28;20078;-64
2021/10/08 09:59:37;;;;;;;3.05;2.20;;;;;;;;;;5084623;28;20051;-64
2021/10/08 10:02:04;;;;;;;3.55;2.20;;;;;;;;;;5093481;28;20094;-64
2021/10/08 10:04:46;;;;;;;5.45;3.17;;;;;;;;;;5091701;28;20040;-64
2021/10/08 10:07:14;;;;;;;2.75;2.08;;;;;;;;;;5088751;28;20042;-64
2021/10/08 10:09:39;;;;;;;3.30;2.65;;;;;;;;;;5088641;28;20051;-64
2021/10/08 10:12:06;;;;;;;3.15;2.50;;;;;;;;;;5082974;28;20365;-64
2021/10/08 10:14:33;;;;;;;3.78;2.33;;;;;;;;;;5088947;28;20463;-64
2021/10/08 10:17:01;;;;;;;3.28;2.60;;;;;;;;;;5093289;28;20043;-64
2021/10/08 10:19:28;;;;;;;2.75;2.08;;;;;;;;;;5088246;28;20514;-64
2021/10/08 10:21:55;;;;;;;3.03;2.15;;;;;;;;;;5091963;28;20032;-64
2021/10/08 10:24:24;;;;;;;3.88;2.80;;;;;;;;;;5090485;28;20031;-64
2021/10/08 10:26:50;;;;;;;3.53;2.80;;;;;;;;;;5089735;28;20047;-63
2021/10/08 10:29:17;;;;;;;6.50;2.45;;;;;;;;;;5084936;28;20369;-63
2021/10/08 10:31:44;;;;;;;3.97;3.00;;;;;;;;;;5086630;28;20023;-64
2021/10/08 10:34:11;;;;;;;4.25;2.55;;;;;;;;;;5087044;28;20143;-63
2021/10/08 10:36:41;;;;;;;3.28;2.70;;;;;;;;;;5085172;28;20107;-63
2021/10/08 10:39:12;;;;;;;2.90;2.28;;;;;;;;;;5083866;28;20032;-64
2021/10/08 10:41:38;;;;;;;3.13;2.22;;;;;;;;;;5083286;28;20032;-64
2021/10/08 10:44:38;;;;;;;4.07;2.40;;;;;;;;;;5084378;28;20028;-64
2021/10/08 10:47:13;;;;;;;3.45;2.15;;;;;;;;;;5085991;28;20469;-64
2021/10/08 10:49:54;;;;;;;3.42;2.83;;;;;;;;;;5086434;28;20035;-64
2021/10/08 10:52:21;;;;;;;;;;;;;;;;;;5084448;28;20066;-63
2021/10/08 10:54:51;;;;;;;3.17;2.67;;;;;;;;;;5083945;28;19938;-63
2021/10/08 10:57:32;;;;;;;3.72;2.42;;;;;;;;;;5084683;28;20036;-63
2021/10/08 11:00:16;;;;;;;;;;;;;;;;;;5083366;28;20034;-64
2021/10/08 11:02:42;;;;;;;3.88;2.70;;;;;;;;;;5083440;28;20249;-63
2021/10/08 11:05:19;;;;;;;3.35;2.80;;;;;;;;;;5086918;28;20365;-63
2021/10/08 11:08:05;;;;;;;2.90;2.40;;;;;;;;;;5080808;28;20040;-64
2021/10/08 11:10:31;;;;;;;3.33;2.53;;;;;;;;;;5083775;28;20482;-64
2021/10/08 11:13:32;;;;;;;3.45;2.38;;;;;;;;;;5083473;28;20104;-62
2021/10/08 11:16:07;;;;;;;;;;;;;;;;;;5086249;28;20040;-61
2021/10/08 11:18:49;;;;;;;2.90;2.08;;;;;;;;;;5088830;28;20364;-62
2021/10/08 11:21:26;;;;;;;4.22;2.53;;;;;;;;;;5092764;28;20032;-62
2021/10/08 11:23:52;;;;;;;3.45;2.38;;;;;;;;;;5088701;28;20044;-61
2021/10/08 11:26:17;;;;;;;4.00;2.47;;;;;;;;;;5081238;28;20077;-61
2021/10/08 11:28:45;;;;;;;2.67;2.15;;;;;;;;;;5091567;28;20028;-63
2021/10/08 11:31:19;;;;;;;2.80;2.20;;;;;;;;;;5085727;28;20115;-63
2021/10/08 11:33:47;;;;;;;2.58;1.95;;;;;;;;;;5080745;28;20047;-62
2021/10/08 11:36:31;;;;;;;13.73;3.05;;;;;;;;;;5076219;28;20035;-62
2021/10/08 11:39:17;;;;;;;3.35;2.55;;;;;;;;;;5078931;28;20131;-62
2021/10/08 11:42:00;;;;;;;3.65;2.58;;;;;;;;;;5086665;28;20059;-63
2021/10/08 11:44:29;;;;;;;3.65;2.65;;;;;;;;;;5083076;28;20032;-62
2021/10/08 11:52:47;;;;;;;4.40;2.60;;;;;;;;;;5041253;28;20048;-62
2021/10/08 11:55:18;;;;;;;3.70;2.67;;;;;;;;;;5083073;28;20024;-62
2021/10/08 11:58:11;;;;;;;3.25;2.55;;;;;;;;;;5080038;28;20036;-62
2021/10/08 12:00:47;;;;;;;4.10;3.15;;;;;;;;;;5076433;28;20476;-62
2021/10/08 12:03:16;;;;;;;4.15;3.38;;;;;;;;;;5083114;28;20093;-62
2021/10/08 12:05:46;;;;;;;3.40;2.53;;;;;;;;;;5084910;28;20024;-62
2021/10/08 12:08:15;;;;;;;3.67;2.80;;;;;;;;;;5085463;28;20025;-62
2021/10/08 12:10:55;;;;;;;4.00;2.90;;;;;;;;;;5084649;28;20062;-61
2021/10/08 12:13:20;;;;;;;3.95;3.38;;;;;;;;;;5083727;28;20032;-62
2021/10/08 12:15:46;;;;;;;3.55;2.90;;;;;;;;;;5085051;28;20720;-62
2021/10/08 12:18:18;;;;;;;4.20;3.15;;;;;;;;;;5086133;28;20044;-62
2021/10/08 12:20:43;;;;;;;4.72;3.58;;;;;;;;;;5087959;28;20416;-62
2021/10/08 12:23:24;;;;;;;3.95;3.20;;;;;;;;;;5090055;28;20060;-62
2021/10/08 12:25:53;;;;;;;;;;;;;;;;;;5089533;28;20032;-62
2021/10/08 12:28:21;;;;;;;3.67;3.03;;;;;;;;;;5088419;28;19926;-62
2021/10/08 12:31:07;;;;;;;4.03;3.00;;;;;;;;;;5086559;28;20054;-62
2021/10/08 12:33:43;;;;;;;4.88;3.33;;;;;;;;;;5085028;28;20028;-62
2021/10/08 12:36:15;;;;;;;4.20;3.45;;;;;;;;;;5082357;28;20931;-62
2021/10/08 12:39:00;;;;;;;3.88;3.40;;;;;;;;;;5078972;28;20036;-61
2021/10/08 12:41:37;;;;;;;4.25;3.08;;;;;;;;;;5086495;28;20028;-61
2021/10/08 12:44:04;;;;;;;5.78;3.15;;;;;;;;;;5089052;28;20111;-60
2021/10/08 12:46:35;;;;;;;3.15;2.55;;;;;;;;;;5086757;28;20054;-60
2021/10/08 12:49:01;;;;;;;3.70;3.10;;;;;;;;;;5087471;28;20465;-60
2021/10/08 12:51:26;;;;;;;4.40;3.20;;;;;;;;;;5084637;28;20034;-60
2021/10/08 12:54:17;;;;;;;3.45;2.90;;;;;;;;;;5091726;28;20115;-60
2021/10/08 12:56:44;;;;;;;3.60;2.90;;;;;;;;;;5090152;28;20028;-60
2021/10/08 12:59:09;;;;;;;3.90;3.25;;;;;;;;;;5086046;28;20592;-60
2021/10/08 13:01:34;;;;;;;4.60;3.55;;;;;;;;;;5085371;28;20037;-60
2021/10/08 13:04:19;;;;;;;5.43;3.08;;;;;;;;;;5086046;28;20584;-60
2021/10/08 13:06:46;;;;;;;4.90;3.22;;;;;;;;;;5089122;28;20099;-60
2021/10/08 13:09:15;;;;;;;5.25;3.95;;;;;;;;;;5088390;28;20127;-61
2021/10/08 13:11:43;;;;;;;4.10;3.53;;;;;;;;;;5086687;28;20036;-61
2021/10/08 13:14:26;;;;;;;4.25;3.40;;;;;;;;;;5078349;28;20135;-62
2021/10/08 13:16:52;;;;;;;4.03;3.38;;;;;;;;;;5087555;28;20036;-61
2021/10/08 13:19:35;;;;;;;5.30;3.50;;;;;;;;;;5087952;28;20126;-62
2021/10/08 13:22:02;;;;;;;4.18;3.05;;;;;;;;;;5083839;28;20161;-61
2021/10/08 13:24:28;;;;;;;8.68;3.45;;;;;;;;;;5082746;28;20036;-62
2021/10/08 13:26:54;;;;;;;3.88;2.88;;;;;;;;;;5082159;28;20138;-61
2021/10/08 13:29:20;;;;;;;4.03;2.72;;;;;;;;;;5091509;28;20142;-62
2021/10/08 13:31:45;;;;;;;4.00;3.00;;;;;;;;;;5089291;28;20437;-62
2021/10/08 13:34:11;;;;;;;4.25;2.97;;;;;;;;;;5088618;28;20028;-62
2021/10/08 13:36:36;;;;;;;4.40;2.58;;;;;;;;;;5087737;28;20067;-62
2021/10/08 13:39:03;;;;;;;5.40;3.67;;;;;;;;;;5080256;28;20036;-61
2021/10/08 13:41:28;;;;;;;6.38;4.30;;;;;;;;;;5087082;28;20159;-62
2021/10/08 13:43:54;;;;;;;4.05;3.10;;;;;;;;;;5080792;28;20102;-61
2021/10/08 13:46:19;;;;;;;4.30;3.55;;;;;;;;;;5083648;28;20102;-61
2021/10/08 13:48:44;;;;;;;4.70;3.90;;;;;;;;;;5090306;28;20545;-61
2021/10/08 13:51:10;;;;;;;4.47;3.75;;;;;;;;;;5081211;28;20035;-62
2021/10/08 13:53:35;;;;;;;4.82;3.78;;;;;;;;;;5084820;28;20093;-62
2021/10/08 13:56:01;;;;;;;3.50;2.97;;;;;;;;;;5087618;28;20488;-61
2021/10/08 13:58:26;;;;;;;5.95;4.85;;;;;;;;;;5087060;28;20054;-61
2021/10/08 14:00:53;;;;;;;4.90;4.07;;;;;;;;;;5082727;28;20040;-61
2021/10/08 14:06:14;;;;;;;4.30;3.67;;;;;;;;;;5087557;28;20640;-62
2021/10/08 14:11:11;;;;;;;5.38;3.95;;;;;;;;;;5085136;28;20104;-62
2021/10/08 14:13:37;;;;;;;5.10;4.05;;;;;;;;;;5091650;28;20086;-62
2021/10/08 14:16:03;;;;;;;7.05;3.72;;;;;;;;;;5085520;28;20036;-62
2021/10/08 14:18:28;;;;;;;4.15;3.35;;;;;;;;;;5084674;28;20605;-62
2021/10/08 14:20:54;;;;;;;6.03;3.95;;;;;;;;;;5083189;28;20039;-61
2021/10/08 14:23:19;;;;;;;4.78;3.78;;;;;;;;;;5087170;28;20367;-61
2021/10/08 14:25:45;;;;;;;6.50;4.10;;;;;;;;;;5080927;28;20373;-61
2021/10/08 14:28:10;;;;;;;4.63;3.33;;;;;;;;;;5082160;28;20107;-61
2021/10/08 14:30:36;;;;;;;7.60;4.07;;;;;;;;;;5085880;28;20070;-61
2021/10/08 14:33:01;;;;;;;5.30;4.22;;;;;;;;;;5086627;28;20039;-61
2021/10/08 14:35:27;;;;;;;4.05;3.13;;;;;;;;;;5082917;28;20135;-62
2021/10/08 14:37:54;;;;;;;4.65;3.88;;;;;;;;;;5085309;28;20043;-61
2021/10/08 14:40:19;;;;;;;4.43;3.83;;;;;;;;;;5082836;28;20035;-61
2021/10/08 14:42:48;;;;;;;5.57;3.60;;;;;;;;;;5088155;28;20032;-62
2021/10/08 14:45:18;;;;;;;5.07;3.83;;;;;;;;;;5086621;28;20115;-61
2021/10/08 14:47:44;;;;;;;5.00;3.53;;;;;;;;;;5086974;28;20039;-62
2021/10/08 14:50:10;;;;;;;5.47;4.38;;;;;;;;;;5084477;28;20032;-61
2021/10/08 14:52:38;;;;;;;4.28;3.30;;;;;;;;;;5086691;28;20036;-61
2021/10/08 14:55:14;;;;;;;5.07;3.75;;;;;;;;;;5089703;28;20028;-61
2021/10/08 15:00:08;;;;;;;4.20;3.60;;;;;;;;;;5082626;28;20027;-61
2021/10/08 15:02:33;;;;;;;4.65;3.58;;;;;;;;;;5083365;28;20092;-61
2021/10/08 15:04:59;;;;;;;4.15;3.47;;;;;;;;;;5082859;28;20032;-61